Time;durP1;ratioP1;P1;durP2;ratioP2;P2;SDS_P1;SDS_P2;PMS_P1;PMS_P2;Temp;Humidity;BMP_temperature;BMP_pressure;BME280_temperature;BME280_humidity;BME280_pressure;Samples;Min_cycle;Max_cycle;Signal;HPM_P1;HPM_P2
2023/06/13 01:02:37;;;;;;;0.00;0.00;;;19.90;87.20;;;;;;6041659;22;1386348;-86
2023/06/13 01:05:05;;;;;;;0.00;0.00;;;19.90;87.60;;;;;;6092882;23;20023;-87
2023/06/13 01:07:33;;;;;;;0.00;0.00;;;19.80;87.70;;;;;;6091493;23;20026;-85
2023/06/13 01:10:00;;;;;;;0.00;0.00;;;19.80;87.60;;;;;;6094330;23;20443;-85
2023/06/13 01:12:36;;;;;;;0.00;0.00;;;19.80;88.90;;;;;;6092855;23;20023;-85
2023/06/13 01:15:15;;;;;;;0.00;0.00;;;19.70;87.70;;;;;;6095274;23;20018;-87
2023/06/13 01:17:49;;;;;;;0.00;0.00;;;19.70;87.60;;;;;;6094684;23;20018;-84
2023/06/13 01:20:18;;;;;;;0.00;0.00;;;19.70;87.60;;;;;;6094466;23;20026;-86
2023/06/13 01:23:22;;;;;;;0.00;0.00;;;19.70;87.00;;;;;;6093605;23;20019;-86
2023/06/13 01:26:10;;;;;;;0.00;0.00;;;19.70;86.70;;;;;;6076478;23;20022;-85
2023/06/13 01:28:37;;;;;;;0.00;0.00;;;19.70;86.50;;;;;;6093320;23;20033;-84
2023/06/13 01:31:08;;;;;;;0.00;0.00;;;19.70;86.60;;;;;;6093380;23;20097;-85
2023/06/13 01:33:36;;;;;;;0.00;0.00;;;19.70;86.70;;;;;;6093727;23;20026;-85
2023/06/13 01:36:04;;;;;;;0.00;0.00;;;19.70;86.70;;;;;;6094009;23;20101;-84
2023/06/13 01:38:31;;;;;;;0.00;0.00;;;19.70;86.20;;;;;;6092931;23;20081;-83
2023/06/13 01:40:58;;;;;;;0.00;0.00;;;19.70;87.10;;;;;;6093870;23;20475;-85
2023/06/13 01:43:25;;;;;;;;;;;19.70;87.60;;;;;;6094190;23;20396;-83
2023/06/13 01:45:59;;;;;;;0.00;0.00;;;19.60;87.30;;;;;;6093669;23;19937;-82
2023/06/13 01:49:09;;;;;;;0.00;0.00;;;19.60;86.60;;;;;;6093411;23;20038;-82
2023/06/13 01:51:43;;;;;;;0.00;0.00;;;19.60;87.30;;;;;;6094255;23;20023;-83
2023/06/13 01:54:11;;;;;;;;;;;19.60;86.90;;;;;;6095913;23;20026;-84
2023/06/13 01:56:41;;;;;;;0.00;0.00;;;19.70;87.00;;;;;;6093116;23;19917;-83
2023/06/13 01:59:10;;;;;;;0.00;0.00;;;19.70;88.20;;;;;;6094088;23;20022;-81
2023/06/13 02:01:41;;;;;;;0.00;0.00;;;19.70;87.80;;;;;;6074412;23;20033;-84
2023/06/13 02:04:08;;;;;;;0.00;0.00;;;19.70;85.30;;;;;;6064135;23;20031;-84
2023/06/13 02:06:36;;;;;;;0.00;0.00;;;19.80;88.60;;;;;;6065147;23;20082;-83
2023/06/13 02:09:04;;;;;;;0.00;0.00;;;19.90;94.50;;;;;;6064487;23;20029;-84
2023/06/13 02:11:31;;;;;;;0.00;0.00;;;20.00;97.00;;;;;;6064189;23;20029;-85
2023/06/13 02:13:58;;;;;;;0.00;0.00;;;20.00;97.60;;;;;;6064780;23;20082;-85
2023/06/13 02:16:29;;;;;;;0.00;0.00;;;20.00;97.50;;;;;;6064840;23;20342;-85
2023/06/13 02:18:59;;;;;;;0.00;0.00;;;20.00;97.20;;;;;;6064834;23;20048;-84
2023/06/13 02:21:29;;;;;;;0.00;0.00;;;20.10;97.90;;;;;;6065674;23;20027;-82
2023/06/13 02:23:56;;;;;;;0.00;0.00;;;20.10;97.60;;;;;;6066533;23;20361;-84
2023/06/13 02:26:23;;;;;;;0.00;0.00;;;20.10;97.60;;;;;;6065690;23;20027;-84
2023/06/13 02:28:50;;;;;;;0.00;0.00;;;20.10;97.30;;;;;;6066447;23;20093;-85
2023/06/13 02:31:17;;;;;;;0.00;0.00;;;20.10;96.80;;;;;;6066214;23;20030;-84
2023/06/13 02:33:45;;;;;;;0.00;0.00;;;20.10;97.20;;;;;;6065359;23;20386;-85
2023/06/13 02:36:12;;;;;;;0.00;0.00;;;20.10;97.00;;;;;;6067012;23;20026;-85
2023/06/13 02:38:39;;;;;;;0.00;0.00;;;20.20;96.80;;;;;;6067342;23;20031;-86
2023/06/13 02:41:06;;;;;;;0.00;0.00;;;20.20;96.40;;;;;;6066211;23;20027;-85
2023/06/13 02:43:33;;;;;;;0.00;0.00;;;20.20;97.00;;;;;;6065972;23;20406;-84
2023/06/13 02:46:00;;;;;;;0.00;0.00;;;20.20;97.90;;;;;;6066512;23;20050;-85
2023/06/13 02:48:26;;;;;;;0.00;0.00;;;20.10;98.60;;;;;;6065453;23;20023;-83
2023/06/13 02:50:54;;;;;;;0.00;0.00;;;20.00;99.10;;;;;;6066694;23;20026;-84
2023/06/13 02:53:21;;;;;;;0.00;0.00;;;19.90;99.10;;;;;;6066890;23;20023;-84
2023/06/13 02:55:48;;;;;;;0.00;0.00;;;19.90;99.10;;;;;;6065918;23;20022;-85
2023/06/13 02:58:15;;;;;;;0.00;0.00;;;19.90;99.30;;;;;;6066110;23;20026;-82
2023/06/13 03:00:42;;;;;;;0.00;0.00;;;19.90;97.10;;;;;;6065373;23;20457;-79
2023/06/13 03:03:10;;;;;;;0.00;0.00;;;19.90;99.90;;;;;;6067204;23;20052;-79
2023/06/13 03:05:38;;;;;;;0.00;0.00;;;19.90;99.90;;;;;;6065209;23;20109;-81
2023/06/13 03:08:04;;;;;;;0.00;0.00;;;19.80;99.60;;;;;;6066125;23;20031;-79
2023/06/13 03:10:32;;;;;;;0.00;0.00;;;19.80;99.60;;;;;;6064923;23;20402;-78
2023/06/13 03:12:59;;;;;;;0.00;0.00;;;19.80;99.90;;;;;;6066051;23;20033;-78
2023/06/13 03:15:27;;;;;;;0.00;0.00;;;19.70;99.90;;;;;;6065117;23;20045;-78
2023/06/13 03:17:54;;;;;;;0.00;0.00;;;19.70;99.90;;;;;;6066235;23;20030;-77
2023/06/13 03:20:21;;;;;;;0.00;0.00;;;19.60;99.90;;;;;;6064692;23;20334;-77
2023/06/13 03:22:51;;;;;;;0.00;0.00;;;19.60;99.90;;;;;;6066472;23;20078;-78
2023/06/13 03:25:19;;;;;;;0.00;0.00;;;19.50;99.90;;;;;;6065767;23;20023;-77
2023/06/13 03:27:46;;;;;;;0.00;0.00;;;19.50;99.90;;;;;;6065506;23;20484;-77
2023/06/13 03:30:13;;;;;;;0.00;0.00;;;19.40;99.90;;;;;;6065010;23;20385;-77
2023/06/13 03:32:40;;;;;;;0.00;0.00;;;19.40;99.90;;;;;;6065853;23;20026;-77
2023/06/13 03:35:07;;;;;;;0.00;0.00;;;19.30;99.90;;;;;;6065465;23;20106;-77
2023/06/13 03:37:34;;;;;;;0.00;0.00;;;19.30;99.90;;;;;;6065236;23;20419;-77
2023/06/13 03:40:01;;;;;;;0.00;0.00;;;19.30;99.90;;;;;;6066709;23;20023;-77
2023/06/13 03:42:27;;;;;;;0.00;0.00;;;19.30;99.90;;;;;;6064958;23;20038;-77
2023/06/13 03:44:54;;;;;;;0.00;0.00;;;19.20;99.90;;;;;;6066742;23;20030;-77
2023/06/13 03:47:21;;;;;;;0.00;0.00;;;19.20;99.90;;;;;;6065903;23;20023;-77
2023/06/13 03:49:48;;;;;;;0.00;0.00;;;19.20;99.90;;;;;;6065787;23;20022;-77
2023/06/13 03:52:15;;;;;;;0.00;0.00;;;19.20;99.90;;;;;;6065965;23;20029;-78
2023/06/13 03:54:42;;;;;;;0.00;0.00;;;19.20;99.90;;;;;;6064583;23;20052;-78
2023/06/13 03:57:10;;;;;;;0.00;0.00;;;19.20;99.90;;;;;;6065673;23;20027;-77
2023/06/13 03:59:37;;;;;;;0.00;0.00;;;19.20;99.90;;;;;;6063993;23;20027;-77
2023/06/13 04:02:04;;;;;;;0.00;0.00;;;19.10;99.90;;;;;;6065507;23;20031;-77
2023/06/13 04:04:32;;;;;;;0.00;0.00;;;19.10;99.90;;;;;;6065918;23;20027;-77
2023/06/13 04:07:05;;;;;;;0.00;0.00;;;19.10;99.90;;;;;;6065672;23;20056;-77
2023/06/13 04:09:32;;;;;;;0.00;0.00;;;19.00;99.90;;;;;;6064563;23;20386;-77
2023/06/13 04:11:59;;;;;;;0.00;0.00;;;19.00;99.90;;;;;;6065092;23;20038;-76
2023/06/13 04:14:26;;;;;;;0.00;0.00;;;19.00;99.90;;;;;;6064883;23;20402;-77
2023/06/13 04:16:53;;;;;;;0.00;0.00;;;19.00;99.90;;;;;;6065092;23;20027;-77
2023/06/13 04:19:20;;;;;;;0.00;0.00;;;19.00;99.90;;;;;;6065508;23;20109;-77
2023/06/13 04:21:47;;;;;;;0.00;0.00;;;19.00;99.90;;;;;;6064471;23;20029;-77
2023/06/13 04:24:14;;;;;;;0.00;0.00;;;19.00;99.90;;;;;;6065349;23;20023;-77
2023/06/13 04:26:41;;;;;;;0.00;0.00;;;19.00;99.90;;;;;;6064002;23;20030;-77
2023/06/13 04:29:09;;;;;;;0.00;0.00;;;19.00;99.90;;;;;;6065207;23;20026;-77
2023/06/13 04:31:40;;;;;;;0.00;0.00;;;19.00;99.90;;;;;;6064171;23;20026;-77
2023/06/13 04:34:11;;;;;;;0.00;0.00;;;19.00;99.90;;;;;;6064744;23;20049;-77
2023/06/13 04:36:41;;;;;;;0.00;0.00;;;18.90;99.90;;;;;;6063159;23;20422;-76
2023/06/13 04:39:08;;;;;;;0.00;0.00;;;18.90;99.90;;;;;;6065320;23;20368;-77
2023/06/13 04:41:37;;;;;;;0.00;0.00;;;18.90;99.90;;;;;;6063394;23;20033;-77
2023/06/13 04:44:05;;;;;;;0.00;0.00;;;18.90;99.90;;;;;;6065378;23;20030;-76
2023/06/13 04:46:32;;;;;;;0.00;0.00;;;18.90;99.90;;;;;;6064100;23;20049;-76
2023/06/13 04:49:00;;;;;;;0.00;0.00;;;18.90;99.90;;;;;;6065117;23;20034;-76
2023/06/13 04:51:28;;;;;;;0.00;0.00;;;18.90;99.90;;;;;;6064862;23;20248;-77
2023/06/13 04:53:58;;;;;;;0.00;0.00;;;18.90;99.90;;;;;;6064115;23;20030;-77
2023/06/13 04:56:27;;;;;;;0.00;0.00;;;18.90;99.90;;;;;;6065033;23;20027;-77
2023/06/13 04:58:55;;;;;;;0.00;0.00;;;18.90;99.90;;;;;;6063278;23;20031;-77
2023/06/13 05:01:32;;;;;;;0.00;0.00;;;18.90;99.90;;;;;;6064650;23;20047;-77
2023/06/13 05:03:59;;;;;;;0.00;0.00;;;18.90;99.90;;;;;;6064100;23;20023;-77
2023/06/13 05:06:29;;;;;;;0.00;0.00;;;18.80;99.90;;;;;;6064612;23;20022;-77
2023/06/13 05:08:57;;;;;;;0.00;0.00;;;18.80;99.90;;;;;;6063879;23;20417;-77
2023/06/13 05:11:24;;;;;;;0.00;0.00;;;18.80;99.90;;;;;;6065048;23;20031;-77
2023/06/13 05:13:51;;;;;;;0.00;0.00;;;18.80;99.90;;;;;;6063125;23;20078;-78
2023/06/13 05:16:18;;;;;;;;;;;18.80;99.90;;;;;;6065124;23;20192;-78
2023/06/13 05:18:46;;;;;;;;;;;18.70;99.90;;;;;;6063445;23;19921;-77
2023/06/13 05:21:16;;;;;;;;;;;18.60;99.90;;;;;;6066542;23;19917;-78
2023/06/13 05:23:44;;;;;;;;;;;18.60;99.90;;;;;;6063391;23;19921;-79
2023/06/13 05:26:11;;;;;;;;;;;18.50;99.90;;;;;;6064905;23;20248;-77
2023/06/13 05:28:39;;;;;;;;;;;18.40;99.90;;;;;;6063799;23;19921;-78
2023/06/13 05:31:06;;;;;;;;;;;18.30;99.90;;;;;;6066916;23;20256;-78
2023/06/13 05:33:33;;;;;;;0.00;0.00;;;18.20;99.90;;;;;;6065102;23;19917;-78
2023/06/13 05:36:00;;;;;;;0.00;0.00;;;18.00;99.90;;;;;;6064052;23;20086;-78
2023/06/13 05:38:27;;;;;;;0.00;0.00;;;18.00;99.90;;;;;;6064625;23;20093;-79
2023/06/13 05:40:54;;;;;;;;;;;18.00;99.90;;;;;;6064313;23;20035;-79
2023/06/13 05:43:21;;;;;;;;;;;18.00;99.90;;;;;;6065569;23;19917;-81
2023/06/13 05:45:48;;;;;;;;;;;18.00;99.90;;;;;;6064801;23;20256;-81
2023/06/13 05:48:15;;;;;;;;;;;18.00;99.90;;;;;;6065469;23;19921;-79
2023/06/13 05:50:42;;;;;;;;;;;18.10;99.90;;;;;;6064548;23;19917;-80
2023/06/13 05:53:10;;;;;;;;;;;18.10;99.90;;;;;;6064632;23;19983;-80
2023/06/13 05:55:36;;;;;;;;;;;18.10;99.90;;;;;;6064944;23;19917;-80
2023/06/13 05:58:03;;;;;;;;;;;18.10;99.90;;;;;;6064516;23;19933;-80
2023/06/13 06:00:30;;;;;;;;;;;18.10;99.90;;;;;;6065226;23;20300;-80
2023/06/13 06:03:00;;;;;;;;;;;18.10;99.90;;;;;;6064131;23;19918;-80
2023/06/13 06:05:29;;;;;;;;;;;18.10;99.90;;;;;;6065641;23;19923;-80
2023/06/13 06:07:56;;;;;;;;;;;18.10;99.90;;;;;;6064513;23;19917;-80
2023/06/13 06:10:23;;;;;;;;;;;18.10;99.90;;;;;;6066531;23;19917;-80
2023/06/13 06:12:49;;;;;;;;;;;18.10;99.90;;;;;;6065825;23;19925;-80
2023/06/13 06:15:16;;;;;;;;;;;18.10;99.90;;;;;;6065292;23;19921;-79
2023/06/13 06:17:43;;;;;;;;;;;18.10;99.90;;;;;;6064901;23;19918;-79
2023/06/13 06:20:10;;;;;;;;;;;18.20;99.90;;;;;;6065120;23;19924;-79
2023/06/13 06:22:37;;;;;;;;;;;18.20;99.90;;;;;;6065309;23;19969;-79
2023/06/13 06:25:05;;;;;;;;;;;18.10;99.90;;;;;;6064013;23;20237;-79
2023/06/13 06:27:32;;;;;;;0.00;0.00;;;18.10;99.90;;;;;;6065858;23;19924;-79
2023/06/13 06:29:59;;;;;;;0.00;0.00;;;18.10;99.90;;;;;;6063723;23;20368;-78
2023/06/13 06:32:26;;;;;;;0.00;0.00;;;18.10;99.90;;;;;;6064898;23;20027;-79
2023/06/13 06:34:54;;;;;;;0.00;0.00;;;18.10;99.90;;;;;;6063576;23;20119;-78
2023/06/13 06:37:22;;;;;;;;;;;18.10;99.90;;;;;;6064836;23;20027;-78
2023/06/13 06:39:49;;;;;;;;;;;18.00;99.90;;;;;;6063904;23;19928;-77
2023/06/13 06:42:16;;;;;;;;;;;17.90;99.90;;;;;;6064789;23;20251;-78
2023/06/13 06:44:42;;;;;;;;;;;17.90;99.90;;;;;;6064207;23;20302;-78
2023/06/13 06:47:11;;;;;;;;;;;17.90;99.90;;;;;;6064630;23;19990;-77
2023/06/13 06:49:38;;;;;;;;;;;17.90;99.90;;;;;;6064131;23;19928;-78
2023/06/13 06:52:05;;;;;;;;;;;17.80;99.90;;;;;;6063844;23;19917;-77
2023/06/13 06:54:33;;;;;;;;;;;17.80;99.90;;;;;;6064903;23;19917;-77
2023/06/13 06:57:04;;;;;;;0.00;0.00;;;17.80;99.90;;;;;;6064849;23;20348;-80
2023/06/13 06:59:31;;;;;;;0.00;0.00;;;17.80;99.90;;;;;;6064499;23;20032;-79
2023/06/13 07:01:58;;;;;;;0.00;0.00;;;17.80;99.90;;;;;;6063564;23;20074;-78
2023/06/13 07:04:25;;;;;;;0.00;0.00;;;17.80;99.90;;;;;;6065561;23;20027;-77
2023/06/13 07:06:52;;;;;;;0.00;0.00;;;17.70;99.90;;;;;;6064253;23;20027;-78
2023/06/13 07:09:19;;;;;;;0.00;0.00;;;17.70;99.90;;;;;;6065908;23;20346;-78
2023/06/13 07:11:46;;;;;;;0.00;0.00;;;17.80;99.90;;;;;;6065506;23;20019;-78
2023/06/13 07:14:13;;;;;;;;;;;17.70;99.90;;;;;;6066616;23;20090;-78
2023/06/13 07:16:41;;;;;;;;;;;17.80;99.90;;;;;;6066268;23;20268;-78
2023/06/13 07:19:08;;;;;;;;;;;17.70;99.90;;;;;;6065878;23;20209;-78
2023/06/13 07:21:35;;;;;;;;;;;17.80;99.90;;;;;;6066349;23;20285;-78
2023/06/13 07:24:02;;;;;;;;;;;17.80;99.90;;;;;;6065575;23;19917;-77
2023/06/13 07:26:34;;;;;;;;;;;17.80;99.90;;;;;;6066695;23;19948;-78
2023/06/13 07:29:01;;;;;;;;;;;17.70;99.90;;;;;;6065579;23;19968;-78
2023/06/13 07:31:29;;;;;;;;;;;17.80;99.90;;;;;;6066602;23;19928;-77
2023/06/13 07:33:56;;;;;;;;;;;17.80;99.90;;;;;;6066456;23;19971;-77
2023/06/13 07:36:23;;;;;;;;;;;17.80;99.90;;;;;;6066518;23;19918;-79
2023/06/13 07:38:50;;;;;;;;;;;17.90;99.90;;;;;;6065574;23;19918;-78
2023/06/13 07:41:17;;;;;;;;;;;17.90;99.90;;;;;;6066206;23;19917;-78
2023/06/13 07:43:44;;;;;;;;;;;18.00;99.90;;;;;;6066391;23;19977;-78
2023/06/13 07:46:11;;;;;;;;;;;18.00;99.90;;;;;;6065453;23;19992;-77
2023/06/13 07:51:43;;;;;;;;;;;18.10;99.90;;;;;;6066788;23;19943;-78
2023/06/13 07:54:09;;;;;;;;;;;18.10;99.90;;;;;;6066615;23;19971;-78
2023/06/13 07:56:36;;;;;;;;;;;18.10;99.90;;;;;;6064994;23;19966;-77
2023/06/13 07:59:03;;;;;;;;;;;18.10;99.90;;;;;;6065727;23;19917;-78
2023/06/13 08:01:30;;;;;;;;;;;18.10;99.90;;;;;;6065046;23;19929;-78
2023/06/13 08:03:57;;;;;;;;;;;18.10;99.90;;;;;;6065583;23;19921;-78
2023/06/13 08:06:24;;;;;;;;;;;18.00;99.90;;;;;;6065378;23;19969;-77
2023/06/13 08:08:50;;;;;;;;;;;18.00;99.90;;;;;;6065456;23;20277;-77
2023/06/13 08:11:17;;;;;;;;;;;18.10;99.90;;;;;;6065922;23;20264;-78
2023/06/13 08:13:44;;;;;;;;;;;18.00;99.90;;;;;;6064940;23;19929;-77
2023/06/13 08:16:11;;;;;;;;;;;18.00;99.90;;;;;;6065777;23;19917;-77
2023/06/13 08:18:38;;;;;;;0.00;0.00;;;18.00;99.90;;;;;;6065767;23;19953;-76
2023/06/13 08:21:06;;;;;;;0.00;0.00;;;17.90;99.90;;;;;;6065609;23;20116;-77
2023/06/13 08:23:32;;;;;;;0.00;0.00;;;18.00;99.90;;;;;;6065975;23;20038;-77
2023/06/13 08:25:59;;;;;;;0.00;0.00;;;18.00;99.90;;;;;;6065651;23;20037;-77
2023/06/13 08:28:26;;;;;;;0.00;0.00;;;18.00;99.90;;;;;;6063831;23;20102;-77
2023/06/13 08:30:53;;;;;;;0.00;0.00;;;18.00;99.90;;;;;;6065153;23;20031;-77
2023/06/13 08:33:40;;;;;;;0.00;0.00;;;18.00;99.90;;;;;;6064377;23;20041;-77
2023/06/13 08:36:20;;;;;;;0.00;0.00;;;18.00;99.90;;;;;;6065344;23;20023;-79
2023/06/13 08:38:58;;;;;;;0.00;0.00;;;18.00;99.90;;;;;;6064292;23;20102;-79
2023/06/13 08:41:27;;;;;;;0.00;0.00;;;17.90;99.90;;;;;;6064275;23;20107;-80
2023/06/13 08:43:55;;;;;;;0.00;0.00;;;17.90;99.90;;;;;;6064116;23;20035;-77
2023/06/13 08:46:24;;;;;;;0.00;0.00;;;17.90;99.90;;;;;;6064754;23;20027;-77
2023/06/13 08:48:51;;;;;;;0.00;0.00;;;17.90;99.90;;;;;;6064445;23;20026;-77
2023/06/13 08:51:22;;;;;;;0.00;0.00;;;17.90;99.90;;;;;;6064262;23;20022;-79
2023/06/13 08:53:53;;;;;;;;;;;17.90;99.90;;;;;;6064642;23;20047;-77
2023/06/13 08:56:25;;;;;;;0.00;0.00;;;17.90;99.90;;;;;;6065016;23;19925;-77
2023/06/13 08:59:06;;;;;;;0.00;0.00;;;17.90;99.90;;;;;;6062241;23;20383;-76
2023/06/13 09:01:40;;;;;;;0.00;0.00;;;18.00;99.90;;;;;;6063105;23;20386;-77
2023/06/13 09:04:09;;;;;;;0.00;0.00;;;18.00;99.90;;;;;;6062577;23;20448;-77
2023/06/13 09:06:40;;;;;;;0.00;0.00;;;18.10;99.90;;;;;;6063304;23;20788;-78
2023/06/13 09:09:07;;;;;;;0.00;0.00;;;18.10;99.90;;;;;;6061996;23;20687;-77
2023/06/13 09:11:35;;;;;;;0.00;0.00;;;18.20;99.90;;;;;;6063289;23;20399;-77
2023/06/13 09:14:07;;;;;;;0.00;0.00;;;18.30;99.90;;;;;;6062359;23;20442;-78
2023/06/13 09:16:34;;;;;;;0.00;0.00;;;18.30;99.90;;;;;;6063762;23;20379;-77
2023/06/13 09:19:01;;;;;;;0.00;0.00;;;18.40;99.90;;;;;;6062283;23;20750;-78
2023/06/13 09:21:28;;;;;;;0.00;0.00;;;18.40;99.90;;;;;;6063461;23;20451;-77
2023/06/13 09:23:56;;;;;;;0.00;0.00;;;18.50;99.90;;;;;;6061897;23;20466;-77
2023/06/13 09:26:24;;;;;;;0.00;0.00;;;18.50;99.90;;;;;;6063069;23;20338;-77
2023/06/13 09:28:51;;;;;;;0.00;0.00;;;18.60;99.90;;;;;;6062917;23;20023;-77
2023/06/13 09:31:18;;;;;;;0.00;0.00;;;18.60;99.90;;;;;;6064593;23;20395;-77
2023/06/13 09:33:46;;;;;;;0.00;0.00;;;18.70;99.90;;;;;;6063952;23;20030;-78
2023/06/13 09:36:13;;;;;;;0.00;0.00;;;18.80;99.90;;;;;;6064571;23;20410;-79
2023/06/13 09:38:41;;;;;;;0.00;0.00;;;18.80;99.90;;;;;;6064615;23;20030;-77
2023/06/13 09:41:12;;;;;;;0.00;0.00;;;18.90;99.90;;;;;;6063671;23;20023;-79
2023/06/13 09:43:39;;;;;;;0.00;0.00;;;19.00;99.90;;;;;;6064406;23;20023;-79
2023/06/13 09:46:13;;;;;;;0.00;0.00;;;19.00;99.90;;;;;;6063319;23;20074;-79
2023/06/13 09:48:44;;;;;;;0.00;0.00;;;19.10;99.90;;;;;;6064919;23;20035;-79
2023/06/13 09:51:12;;;;;;;0.00;0.00;;;19.20;99.90;;;;;;6064605;23;20029;-79
2023/06/13 09:53:39;;;;;;;0.00;0.00;;;19.20;99.90;;;;;;6063937;23;20286;-77
2023/06/13 09:56:12;;;;;;;0.00;0.00;;;19.20;99.90;;;;;;6063305;23;20102;-79
2023/06/13 09:58:40;;;;;;;0.00;0.00;;;19.30;99.90;;;;;;6065694;23;20409;-79
2023/06/13 10:01:14;;;;;;;0.00;0.00;;;19.40;99.90;;;;;;6062833;23;20027;-77
2023/06/13 10:03:43;;;;;;;0.00;0.00;;;19.50;99.90;;;;;;6064933;23;20342;-77
2023/06/13 10:06:11;;;;;;;0.00;0.00;;;19.60;99.90;;;;;;6063178;23;20534;-77
2023/06/13 10:08:39;;;;;;;0.00;0.00;;;19.70;99.90;;;;;;6063999;23;20034;-77
2023/06/13 10:11:21;;;;;;;0.00;0.00;;;19.80;99.90;;;;;;6063135;23;20052;-76
2023/06/13 10:13:59;;;;;;;0.00;0.00;;;19.90;99.90;;;;;;6066998;23;20050;-76
2023/06/13 10:16:30;;;;;;;0.00;0.00;;;20.10;99.90;;;;;;6064221;23;20509;-79
2023/06/13 10:18:58;;;;;;;0.00;0.00;;;20.20;99.90;;;;;;6063389;23;20031;-78
2023/06/13 10:21:26;;;;;;;0.00;0.00;;;20.40;99.90;;;;;;6063309;23;20361;-76
2023/06/13 10:24:03;;;;;;;0.00;0.00;;;20.40;99.90;;;;;;6064031;23;20022;-77
2023/06/13 10:26:36;;;;;;;0.00;0.00;;;20.50;99.90;;;;;;6063046;23;20030;-77
2023/06/13 10:29:30;;;;;;;0.00;0.00;;;20.50;99.90;;;;;;6063708;23;20023;-77
2023/06/13 10:32:31;;;;;;;0.00;0.00;;;20.60;99.90;;;;;;6062922;23;20102;-77
2023/06/13 10:35:20;;;;;;;0.00;0.00;;;20.60;99.90;;;;;;6062954;23;20339;-77
2023/06/13 10:38:05;;;;;;;0.00;0.00;;;20.70;99.90;;;;;;6063530;23;20026;-76
2023/06/13 10:41:02;;;;;;;0.00;0.00;;;20.70;99.90;;;;;;6065863;23;20094;-77
2023/06/13 10:43:41;;;;;;;0.00;0.00;;;20.80;99.90;;;;;;6065059;23;20018;-76
2023/06/13 10:46:09;;;;;;;0.00;0.00;;;20.90;99.90;;;;;;6065085;23;20354;-77
2023/06/13 10:48:51;;;;;;;0.00;0.00;;;20.90;99.90;;;;;;6065869;23;20023;-77
2023/06/13 10:51:23;;;;;;;0.00;0.00;;;20.90;99.90;;;;;;6064651;23;20023;-77
2023/06/13 10:54:02;;;;;;;0.00;0.00;;;20.80;99.90;;;;;;6064526;23;20026;-77
2023/06/13 10:56:33;;;;;;;0.00;0.00;;;20.80;99.90;;;;;;6065240;23;20026;-77
2023/06/13 10:59:02;;;;;;;0.00;0.00;;;20.80;99.90;;;;;;6067287;23;20026;-78
2023/06/13 11:01:31;;;;;;;0.00;0.00;;;20.80;99.90;;;;;;6064957;23;20360;-78
2023/06/13 11:04:15;;;;;;;0.00;0.00;;;20.80;99.90;;;;;;6066349;23;20026;-77
2023/06/13 11:06:44;;;;;;;0.00;0.00;;;20.80;99.90;;;;;;6066855;23;20357;-78
2023/06/13 11:09:20;;;;;;;0.00;0.00;;;20.80;99.90;;;;;;6065694;23;20026;-78
2023/06/13 11:11:53;;;;;;;0.00;0.00;;;20.80;99.90;;;;;;6066683;23;20406;-78
2023/06/13 11:14:26;;;;;;;;;;;20.80;99.90;;;;;;6066551;23;20373;-78
2023/06/13 11:16:54;;;;;;;0.00;0.00;;;20.80;99.90;;;;;;6065329;23;19992;-78
2023/06/13 11:19:29;;;;;;;0.00;0.00;;;20.80;99.90;;;;;;6065597;23;20031;-78
2023/06/13 11:21:59;;;;;;;0.00;0.00;;;20.80;99.90;;;;;;6064611;23;20042;-78
2023/06/13 11:24:28;;;;;;;0.00;0.00;;;20.80;99.90;;;;;;6065303;23;20469;-78
2023/06/13 11:27:03;;;;;;;0.00;0.00;;;20.90;99.90;;;;;;6064983;23;20106;-78
2023/06/13 11:29:32;;;;;;;0.00;0.00;;;20.90;99.90;;;;;;6064941;23;20464;-78
2023/06/13 11:32:06;;;;;;;0.00;0.00;;;20.90;99.90;;;;;;6065032;23;20026;-78
2023/06/13 11:34:38;;;;;;;0.00;0.00;;;20.90;99.90;;;;;;6065685;23;20358;-78
2023/06/13 11:37:13;;;;;;;0.00;0.00;;;20.90;99.90;;;;;;6064560;23;20027;-79
2023/06/13 11:39:41;;;;;;;0.00;0.00;;;20.90;99.90;;;;;;6065810;23;20098;-78
2023/06/13 11:42:10;;;;;;;0.00;0.00;;;20.80;99.90;;;;;;6066395;23;20042;-79
2023/06/13 11:44:38;;;;;;;0.00;0.00;;;20.80;99.90;;;;;;6065184;23;20033;-78
2023/06/13 11:47:11;;;;;;;0.00;0.00;;;20.80;99.90;;;;;;6063780;23;20041;-78
2023/06/13 11:49:38;;;;;;;0.00;0.00;;;20.80;99.90;;;;;;6065410;23;20033;-78
2023/06/13 11:52:16;;;;;;;0.00;0.00;;;20.70;99.90;;;;;;6065970;23;20054;-77
2023/06/13 11:54:47;;;;;;;0.00;0.00;;;20.70;99.90;;;;;;6064996;23;20054;-76
2023/06/13 11:57:15;;;;;;;0.00;0.00;;;20.50;99.90;;;;;;6065268;23;20038;-77
2023/06/13 11:59:43;;;;;;;0.00;0.00;;;20.40;99.90;;;;;;6066517;23;20055;-77
2023/06/13 12:02:13;;;;;;;0.00;0.00;;;20.30;99.90;;;;;;6064638;23;20099;-77
2023/06/13 12:04:42;;;;;;;0.00;0.00;;;20.20;99.90;;;;;;6064684;23;20034;-79
2023/06/13 12:07:17;;;;;;;0.00;0.00;;;20.10;99.90;;;;;;6066229;23;20027;-79
2023/06/13 12:09:46;;;;;;;0.00;0.00;;;20.00;99.90;;;;;;6065901;23;20030;-77
2023/06/13 12:12:13;;;;;;;0.00;0.00;;;20.10;99.90;;;;;;6064179;23;20031;-77
2023/06/13 12:14:40;;;;;;;0.00;0.00;;;20.20;99.90;;;;;;6065297;23;20046;-77
2023/06/13 12:17:09;;;;;;;0.00;0.00;;;20.20;99.90;;;;;;6064027;23;20414;-77
2023/06/13 12:19:36;;;;;;;0.00;0.00;;;20.20;99.90;;;;;;6065639;23;20054;-77
2023/06/13 12:22:03;;;;;;;0.00;0.00;;;20.30;99.90;;;;;;6066239;23;20022;-77
2023/06/13 12:24:31;;;;;;;0.00;0.00;;;20.30;99.90;;;;;;6065512;23;20277;-77
2023/06/13 12:27:02;;;;;;;0.00;0.00;;;20.30;99.90;;;;;;6065194;23;20022;-77
2023/06/13 12:29:33;;;;;;;0.00;0.00;;;20.40;99.90;;;;;;6066700;23;20031;-78
2023/06/13 12:32:05;;;;;;;0.00;0.00;;;20.50;99.90;;;;;;6064285;23;20023;-78
2023/06/13 12:34:36;;;;;;;0.00;0.00;;;20.50;99.90;;;;;;6065560;23;20026;-77
2023/06/13 12:37:08;;;;;;;0.00;0.00;;;20.50;99.90;;;;;;6064063;23;20022;-77
2023/06/13 12:39:35;;;;;;;0.00;0.00;;;20.60;99.90;;;;;;6064684;23;20056;-77
2023/06/13 12:42:10;;;;;;;0.00;0.00;;;20.60;99.90;;;;;;6064777;23;20026;-78
2023/06/13 12:44:37;;;;;;;0.00;0.00;;;20.60;99.90;;;;;;6065431;23;20023;-77
2023/06/13 12:47:06;;;;;;;0.00;0.00;;;20.70;99.90;;;;;;6064270;23;20027;-78
2023/06/13 12:49:37;;;;;;;0.00;0.00;;;20.70;99.90;;;;;;6065071;23;20129;-78
2023/06/13 12:52:15;;;;;;;0.00;0.00;;;20.60;99.90;;;;;;6065619;23;20121;-78
2023/06/13 12:54:42;;;;;;;0.00;0.00;;;20.60;99.90;;;;;;6064726;23;20026;-78
2023/06/13 12:57:11;;;;;;;0.00;0.00;;;20.60;99.90;;;;;;6064406;23;20035;-78
2023/06/13 12:59:42;;;;;;;0.00;0.00;;;20.60;99.90;;;;;;6064823;23;20074;-77
2023/06/13 13:02:14;;;;;;;0.00;0.00;;;20.60;99.90;;;;;;6063580;23;20122;-78
2023/06/13 13:04:43;;;;;;;0.00;0.00;;;20.60;99.90;;;;;;6064139;23;20369;-78
2023/06/13 13:07:14;;;;;;;0.00;0.00;;;20.60;99.90;;;;;;6064318;23;20033;-78
2023/06/13 13:09:43;;;;;;;0.00;0.00;;;20.50;99.90;;;;;;6063839;23;20026;-78
2023/06/13 13:12:13;;;;;;;0.00;0.00;;;20.50;99.90;;;;;;6063229;23;20027;-78
2023/06/13 13:14:41;;;;;;;0.00;0.00;;;20.60;99.90;;;;;;6064241;23;20368;-78
2023/06/13 13:17:08;;;;;;;0.00;0.00;;;20.60;99.90;;;;;;6062957;23;20342;-78
2023/06/13 13:19:35;;;;;;;0.00;0.00;;;20.60;99.90;;;;;;6065569;23;20034;-77
2023/06/13 13:22:03;;;;;;;0.00;0.00;;;20.60;99.90;;;;;;6063203;23;20420;-78
2023/06/13 13:24:29;;;;;;;0.00;0.00;;;20.60;99.90;;;;;;6064050;23;20034;-78
2023/06/13 13:27:01;;;;;;;0.00;0.00;;;20.70;99.90;;;;;;6062737;23;20034;-78
2023/06/13 13:29:28;;;;;;;0.00;0.00;;;20.70;99.90;;;;;;6063655;23;20036;-77
2023/06/13 13:31:55;;;;;;;0.00;0.00;;;20.70;99.90;;;;;;6063198;23;20043;-78
2023/06/13 13:34:22;;;;;;;0.00;0.00;;;20.80;99.90;;;;;;6062948;23;20098;-77
2023/06/13 13:36:53;;;;;;;0.00;0.00;;;20.80;99.90;;;;;;6064069;23;20027;-77
2023/06/13 13:39:22;;;;;;;0.00;0.00;;;20.90;99.90;;;;;;6063490;23;20033;-77
2023/06/13 13:41:50;;;;;;;0.00;0.00;;;21.00;99.90;;;;;;6065019;23;20398;-77
2023/06/13 13:44:17;;;;;;;0.00;0.00;;;21.10;99.90;;;;;;6063931;23;20027;-77
2023/06/13 13:46:44;;;;;;;0.00;0.00;;;21.10;99.90;;;;;;6063730;23;20037;-78
2023/06/13 13:49:11;;;;;;;0.00;0.00;;;21.10;99.90;;;;;;6063730;23;20342;-78
2023/06/13 13:51:39;;;;;;;0.00;0.00;;;21.20;99.90;;;;;;6064196;23;20408;-78
2023/06/13 13:54:06;;;;;;;0.00;0.00;;;21.20;99.90;;;;;;6063815;23;20080;-78
2023/06/13 13:56:33;;;;;;;0.00;0.00;;;21.20;99.90;;;;;;6064230;23;20022;-81
2023/06/13 13:59:00;;;;;;;0.00;0.00;;;21.30;99.90;;;;;;6066600;23;20030;-80
2023/06/13 14:01:27;;;;;;;0.00;0.00;;;21.30;99.90;;;;;;6063401;23;20026;-80
2023/06/13 14:03:54;;;;;;;0.00;0.00;;;21.20;99.90;;;;;;6064497;23;20031;-80
2023/06/13 14:06:21;;;;;;;0.00;0.00;;;21.20;99.90;;;;;;6063158;23;20039;-81
2023/06/13 14:08:48;;;;;;;0.00;0.00;;;21.20;99.90;;;;;;6064485;23;20026;-81
2023/06/13 14:11:15;;;;;;;0.00;0.00;;;21.30;99.90;;;;;;6063865;23;20031;-81
2023/06/13 14:13:42;;;;;;;0.00;0.00;;;21.30;99.90;;;;;;6066051;23;20033;-80
2023/06/13 14:16:10;;;;;;;0.00;0.00;;;21.50;99.90;;;;;;6065955;23;20023;-79
2023/06/13 14:18:37;;;;;;;0.00;0.00;;;21.50;98.60;;;;;;6066480;23;20026;-81